Time;durP1;ratioP1;P1;durP2;ratioP2;P2;SDS_P1;SDS_P2;PMS_P1;PMS_P2;Temp;Humidity;BMP_temperature;BMP_pressure;BME280_temperature;BME280_humidity;BME280_pressure;Samples;Min_cycle;Max_cycle;Signal;HPM_P1;HPM_P2
2023/05/05 00:00:51;;;;;;;8.75;4.57;;;;;;;10.15;94.48;94972.19;5033284;28;20562;-78
2023/05/05 00:03:19;;;;;;;9.65;4.55;;;;;;;10.20;94.17;94980.19;5039843;28;20483;-76
2023/05/05 00:05:46;;;;;;;8.65;4.50;;;;;;;10.17;94.09;94965.34;5057445;28;20200;-75
2023/05/05 00:08:13;;;;;;;8.45;4.68;;;;;;;10.14;93.49;94970.59;5060545;28;20203;-77
2023/05/05 00:10:40;;;;;;;9.82;4.43;;;;;;;9.90;94.14;94971.81;5046851;28;20260;-76
2023/05/05 00:13:07;;;;;;;8.15;4.65;;;;;;;9.81;94.82;94983.75;5049313;28;20223;-77
2023/05/05 00:15:35;;;;;;;8.02;4.20;;;;;;;9.57;95.71;94978.69;5057497;28;20207;-77
2023/05/05 00:18:02;;;;;;;8.80;4.72;;;;;;;9.41;96.49;94972.94;5049674;28;20230;-76
2023/05/05 00:20:28;;;;;;;7.47;5.13;;;;;;;9.40;96.72;94967.84;5054476;28;20203;-78
2023/05/05 00:22:55;;;;;;;10.18;6.10;;;;;;;9.45;96.61;94978.50;5062744;28;20614;-77
2023/05/05 00:25:22;;;;;;;12.00;5.13;;;;;;;9.31;97.21;94980.50;5064988;28;21471;-77
2023/05/05 00:27:49;;;;;;;12.00;5.45;;;;;;;9.25;97.07;94972.53;5060250;28;20208;-76
2023/05/05 00:30:16;;;;;;;8.48;5.38;;;;;;;9.12;97.74;94965.31;5046847;28;20215;-77
2023/05/05 00:32:44;;;;;;;9.35;4.60;;;;;;;9.04;98.33;94976.84;5046089;28;20206;-76
2023/05/05 00:35:11;;;;;;;8.18;4.95;;;;;;;9.01;98.75;94980.19;5056843;28;20256;-77
2023/05/05 00:37:37;;;;;;;9.75;5.03;;;;;;;8.94;98.78;94971.72;5052565;28;20211;-77
2023/05/05 00:40:05;;;;;;;8.50;4.15;;;;;;;8.86;99.44;94977.88;5055163;28;20350;-76
2023/05/05 00:42:40;;;;;;;9.43;4.93;;;;;;;8.82;99.92;94979.59;5045997;28;20239;-76
2023/05/05 00:45:07;;;;;;;10.68;5.40;;;;;;;8.77;100.00;94980.50;5058927;28;20207;-76
2023/05/05 00:47:34;;;;;;;15.45;5.03;;;;;;;8.76;100.00;94981.59;5052747;28;20267;-76
2023/05/05 00:50:03;;;;;;;7.10;4.72;;;;;;;8.75;100.00;94973.78;5053652;28;20729;-76
2023/05/05 00:52:30;;;;;;;7.75;4.75;;;;;;;8.74;100.00;94977.63;5041351;28;20215;-76
2023/05/05 00:54:58;;;;;;;8.70;5.13;;;;;;;8.70;100.00;94974.75;5053929;28;20211;-77
2023/05/05 00:57:26;;;;;;;9.93;5.32;;;;;;;8.71;100.00;94978.25;5059548;28;20262;-76
2023/05/05 00:59:56;;;;;;;6.15;4.03;;;;;;;8.66;100.00;94975.66;5048424;28;20227;-76
2023/05/05 01:02:22;;;;;;;9.05;4.72;;;;;;;8.64;100.00;94972.44;5057969;28;20744;-76
2023/05/05 01:04:49;;;;;;;6.90;4.57;;;;;;;8.55;100.00;94981.28;5060162;28;20233;-76
2023/05/05 01:07:32;;;;;;;8.55;4.65;;;;;;;8.70;100.00;94982.03;5056212;28;20199;-76
2023/05/05 01:10:05;;;;;;;7.95;4.68;;;;;;;8.76;100.00;94976.19;5053785;28;20293;-76
2023/05/05 01:12:41;;;;;;;6.95;4.35;;;;;;;8.81;100.00;94972.59;5066473;28;20741;-77
2023/05/05 01:15:16;;;;;;;8.38;5.47;;;;;;;8.84;100.00;94966.56;5041214;28;20203;-76
2023/05/05 01:17:54;;;;;;;7.93;4.82;;;;;;;8.87;99.88;94974.06;5056836;28;20210;-77
2023/05/05 01:20:26;;;;;;;9.50;4.53;;;;;;;8.82;100.00;94969.56;5060903;28;20564;-77
2023/05/05 01:22:59;;;;;;;9.80;4.70;;;;;;;8.84;99.99;94969.28;5063902;28;20666;-77
2023/05/05 01:25:52;;;;;;;13.13;4.97;;;;;;;8.79;99.81;94964.78;5062263;28;20207;-78
2023/05/05 01:28:38;;;;;;;7.72;4.47;;;;;;;8.59;100.00;94970.69;5047814;28;20560;-76
2023/05/05 01:31:14;;;;;;;7.80;4.40;;;;;;;8.56;100.00;94960.50;5057244;28;20207;-76
2023/05/05 01:33:48;;;;;;;7.22;4.53;;;;;;;8.53;100.00;94963.81;5070409;28;20629;-77
2023/05/05 01:36:24;;;;;;;6.43;4.70;;;;;;;8.43;100.00;94969.44;5044498;28;20301;-76
2023/05/05 01:38:56;;;;;;;8.85;5.20;;;;;;;8.33;100.00;94959.69;5057542;28;20246;-77
2023/05/05 01:41:28;;;;;;;8.25;5.05;;;;;;;8.27;100.00;94960.88;5063394;28;20329;-77
2023/05/05 01:43:57;;;;;;;7.07;4.25;;;;;;;8.06;100.00;94967.81;5066247;28;20311;-77
2023/05/05 01:46:24;;;;;;;7.38;4.90;;;;;;;7.97;100.00;94969.63;5062203;28;20714;-77
2023/05/05 01:48:55;;;;;;;7.68;4.50;;;;;;;7.89;100.00;94959.56;5059410;28;20228;-76
2023/05/05 01:51:25;;;;;;;7.75;4.47;;;;;;;7.91;100.00;94954.66;5061395;28;20704;-76
2023/05/05 01:53:54;;;;;;;8.40;4.63;;;;;;;7.92;100.00;94948.16;5064169;28;20208;-76
2023/05/05 01:56:23;;;;;;;9.15;4.78;;;;;;;7.95;100.00;94937.56;5062435;28;20260;-76
2023/05/05 01:58:52;;;;;;;8.68;4.50;;;;;;;8.04;100.00;94954.63;5050961;28;20239;-77
2023/05/05 02:01:22;;;;;;;7.65;4.68;;;;;;;8.18;100.00;94949.22;5050076;28;20609;-75
2023/05/05 02:03:51;;;;;;;6.53;4.53;;;;;;;8.29;100.00;94955.97;5056224;28;20276;-77
2023/05/05 02:06:21;;;;;;;8.43;4.32;;;;;;;8.40;100.00;94946.56;5056149;28;20682;-77
2023/05/05 02:08:49;;;;;;;7.57;4.15;;;;;;;8.35;100.00;94937.75;5062279;28;20291;-76
2023/05/05 02:11:17;;;;;;;8.18;4.60;;;;;;;8.43;100.00;94945.94;5050431;28;20233;-76
2023/05/05 02:13:44;;;;;;;6.80;4.15;;;;;;;8.60;100.00;94947.19;5061864;28;20203;-76
2023/05/05 02:16:13;;;;;;;9.57;5.05;;;;;;;8.62;100.00;94947.66;5051418;28;20249;-76
2023/05/05 02:18:42;;;;;;;8.48;4.32;;;;;;;8.71;100.00;94945.84;5061123;28;20223;-76
2023/05/05 02:21:09;;;;;;;7.90;4.35;;;;;;;8.79;100.00;94947.78;5063206;28;20203;-77
2023/05/05 02:23:38;;;;;;;4.15;1.95;;;;;;;8.82;100.00;94947.97;5058805;28;20817;-77
2023/05/05 02:26:07;;;;;;;9.02;4.47;;;;;;;8.86;100.00;94950.84;5056136;28;20222;-77
2023/05/05 02:28:39;;;;;;;9.20;4.07;;;;;;;8.98;100.00;94950.28;5058249;28;20204;-77
2023/05/05 02:31:08;;;;;;;6.15;4.00;;;;;;;9.05;100.00;94951.44;5062587;28;20219;-77
2023/05/05 02:33:36;;;;;;;6.85;4.10;;;;;;;9.10;100.00;94950.50;5060691;28;20203;-77
2023/05/05 02:36:11;;;;;;;8.43;3.88;;;;;;;9.08;99.87;94944.63;5055987;28;20295;-77
2023/05/05 02:38:42;;;;;;;6.28;3.63;;;;;;;9.11;99.68;94950.22;5056546;28;20341;-76
2023/05/05 02:41:13;;;;;;;5.22;3.90;;;;;;;9.20;99.10;94947.53;5042746;28;20322;-77
2023/05/05 02:43:43;;;;;;;7.53;4.65;;;;;;;9.18;98.95;94949.75;5068206;28;20661;-77
2023/05/05 02:46:10;;;;;;;6.18;3.88;;;;;;;9.27;98.13;94943.28;5057209;28;20206;-77
2023/05/05 02:48:37;;;;;;;6.50;3.70;;;;;;;9.24;97.46;94949.31;5068213;28;20207;-77
2023/05/05 02:51:04;;;;;;;5.40;3.40;;;;;;;9.33;97.40;94945.84;5049001;28;20216;-77
2023/05/05 02:53:32;;;;;;;6.80;3.67;;;;;;;9.35;97.46;94949.84;5061871;28;20946;-76
2023/05/05 02:56:09;;;;;;;4.75;3.45;;;;;;;9.31;97.89;94948.84;5057904;28;20195;-77
2023/05/05 02:58:45;;;;;;;6.57;3.78;;;;;;;9.46;97.51;94939.53;5051468;28;20231;-77
2023/05/05 03:01:25;;;;;;;6.63;3.55;;;;;;;9.54;96.95;94938.78;5061158;28;20203;-76
2023/05/05 03:04:00;;;;;;;8.13;4.38;;;;;;;9.52;96.47;94943.72;5036129;28;20384;-77
2023/05/05 03:06:29;;;;;;;5.63;3.45;;;;;;;9.63;96.02;94945.00;5062353;28;20210;-76
2023/05/05 03:09:03;;;;;;;8.32;4.43;;;;;;;9.63;95.89;94942.31;5048804;28;20257;-76
2023/05/05 03:11:35;;;;;;;5.82;3.83;;;;;;;9.50;96.38;94941.31;5062287;28;20231;-76
2023/05/05 03:14:08;;;;;;;6.55;4.00;;;;;;;9.47;96.32;94941.13;5059279;28;20203;-76
2023/05/05 03:16:36;;;;;;;5.22;3.58;;;;;;;9.49;96.62;94936.22;5054712;28;20241;-76
2023/05/05 03:19:04;;;;;;;5.97;3.58;;;;;;;9.53;96.97;94938.00;5051912;28;20300;-77
2023/05/05 03:21:32;;;;;;;6.38;4.05;;;;;;;9.50;97.03;94943.22;5061479;28;20200;-77
2023/05/05 03:23:59;;;;;;;7.22;3.45;;;;;;;9.61;96.78;94941.81;5060815;28;20260;-77
2023/05/05 03:26:30;;;;;;;7.20;3.67;;;;;;;9.69;95.71;94943.78;5054486;28;20299;-77
2023/05/05 03:28:58;;;;;;;6.97;3.70;;;;;;;9.70;94.73;94942.66;5055605;28;20223;-77
2023/05/05 03:31:27;;;;;;;6.07;3.40;;;;;;;9.83;94.61;94939.03;5041848;28;20207;-76
2023/05/05 03:33:53;;;;;;;6.43;3.65;;;;;;;9.77;93.73;94934.88;5054954;28;20238;-77
2023/05/05 03:36:20;;;;;;;5.00;3.60;;;;;;;9.84;93.36;94939.84;5061208;28;20215;-78
2023/05/05 03:38:49;;;;;;;13.80;4.40;;;;;;;9.85;93.44;94947.63;5061360;28;20203;-77
2023/05/05 03:41:16;;;;;;;6.82;3.33;;;;;;;9.72;93.48;94942.31;5056022;28;20561;-76
2023/05/05 03:43:43;;;;;;;7.65;4.20;;;;;;;9.68;94.17;94947.59;5054260;28;20307;-76
2023/05/05 03:46:12;;;;;;;6.85;3.80;;;;;;;9.82;94.12;94942.84;5059490;28;20286;-76
2023/05/05 03:48:40;;;;;;;7.40;3.80;;;;;;;9.74;94.00;94930.09;5049544;28;20222;-76
2023/05/05 03:51:07;;;;;;;6.85;4.07;;;;;;;9.98;93.79;94933.16;5059140;28;20204;-76
2023/05/05 03:53:34;;;;;;;6.28;3.55;;;;;;;10.08;92.67;94933.97;5050253;28;20632;-76
2023/05/05 03:56:01;;;;;;;5.10;3.35;;;;;;;10.11;92.86;94938.78;5058844;28;20214;-76
2023/05/05 03:58:27;;;;;;;5.13;4.30;;;;;;;10.15;92.95;94945.13;5047998;28;20207;-76
2023/05/05 04:00:54;;;;;;;7.32;4.45;;;;;;;10.24;92.39;94948.69;5047889;28;20637;-77
2023/05/05 04:03:23;;;;;;;6.25;4.07;;;;;;;9.99;92.62;94944.78;5061310;28;20254;-77
2023/05/05 04:05:49;;;;;;;7.95;4.70;;;;;;;9.99;93.05;94945.56;5058315;28;20950;-76
2023/05/05 04:08:16;;;;;;;6.43;3.80;;;;;;;10.05;92.61;94945.44;5064469;28;20666;-75
2023/05/05 04:10:43;;;;;;;6.00;3.70;;;;;;;10.04;92.05;94944.63;5057839;28;20206;-75
2023/05/05 04:13:10;;;;;;;7.57;3.67;;;;;;;10.20;91.63;94951.22;5054659;28;20222;-76
2023/05/05 04:15:37;;;;;;;6.43;4.32;;;;;;;10.24;91.18;94949.47;5056973;28;20249;-75
2023/05/05 04:18:04;;;;;;;8.93;3.88;;;;;;;10.42;90.02;94958.41;5051428;28;20203;-76
2023/05/05 04:20:34;;;;;;;6.85;3.55;;;;;;;10.27;90.50;94959.66;5056274;28;20242;-75
2023/05/05 04:23:01;;;;;;;6.13;3.42;;;;;;;10.06;91.06;94960.56;5060702;28;20223;-75
2023/05/05 04:25:28;;;;;;;2.50;1.65;;;;;;;9.96;91.42;94961.66;5058622;28;20202;-77
2023/05/05 04:27:55;;;;;;;6.40;3.80;;;;;;;9.89;92.03;94970.22;5048701;28;20215;-75
2023/05/05 04:30:22;;;;;;;6.88;3.78;;;;;;;9.91;92.01;94962.59;5047500;28;20226;-75
2023/05/05 04:32:48;;;;;;;4.65;2.95;;;;;;;9.90;90.84;94969.13;5060160;28;20701;-76
2023/05/05 04:35:15;;;;;;;7.25;4.18;;;;;;;9.97;90.60;94972.19;5058533;28;20203;-75
2023/05/05 04:37:43;;;;;;;9.73;6.00;;;;;;;10.07;90.15;94971.06;5040047;28;20199;-75
2023/05/05 04:40:11;;;;;;;9.52;6.25;;;;;;;9.93;90.61;94971.19;5054636;28;20239;-75
2023/05/05 04:42:38;;;;;;;14.32;7.75;;;;;;;10.04;90.29;94977.13;5060153;28;20210;-76
2023/05/05 04:45:05;;;;;;;14.32;6.90;;;;;;;10.08;90.01;94971.88;5047005;28;20212;-74
2023/05/05 04:47:36;;;;;;;13.95;5.38;;;;;;;10.15;89.94;94983.03;5060429;28;20199;-77
2023/05/05 04:50:03;;;;;;;13.82;8.00;;;;;;;10.15;90.03;94978.41;5060114;28;20202;-75
2023/05/05 04:52:30;;;;;;;14.25;6.30;;;;;;;10.24;90.04;94971.16;5057825;28;20198;-75
2023/05/05 04:54:58;;;;;;;10.13;6.05;;;;;;;10.29;89.43;94979.09;5057809;28;20207;-74
2023/05/05 04:57:25;;;;;;;8.68;4.20;;;;;;;10.29;88.38;94983.72;5063706;28;20203;-74
2023/05/05 04:59:52;;;;;;;10.32;5.90;;;;;;;10.45;88.16;94987.56;5051764;28;20227;-74
2023/05/05 05:02:19;;;;;;;9.57;5.82;;;;;;;10.59;88.05;94987.41;5063416;28;20296;-75
2023/05/05 05:04:46;;;;;;;12.23;7.30;;;;;;;10.79;87.48;94977.84;5052359;28;20203;-75
2023/05/05 05:07:13;;;;;;;17.00;8.75;;;;;;;10.98;87.51;94983.72;5063365;28;20241;-73
2023/05/05 05:09:40;;;;;;;16.00;8.95;;;;;;;11.10;86.62;94981.13;5064693;28;20293;-75
2023/05/05 05:12:08;;;;;;;15.40;8.73;;;;;;;11.27;85.96;94991.97;5058176;28;20225;-75
2023/05/05 05:14:37;;;;;;;15.40;8.05;;;;;;;11.20;85.43;94996.28;5057302;28;20215;-75
2023/05/05 05:17:03;;;;;;;11.45;7.47;;;;;;;11.45;85.13;94987.28;5070745;28;20207;-74
2023/05/05 05:19:30;;;;;;;12.65;9.07;;;;;;;11.27;84.87;94991.97;5056961;28;20235;-76
2023/05/05 05:21:57;;;;;;;10.15;7.75;;;;;;;11.51;84.36;94985.19;5062205;28;20269;-75
2023/05/05 05:24:25;;;;;;;8.25;5.45;;;;;;;11.75;83.65;94990.88;5063723;28;20209;-74
2023/05/05 05:26:51;;;;;;;14.93;5.60;;;;;;;12.24;82.38;94986.63;5059158;28;20199;-75
2023/05/05 05:29:20;;;;;;;9.00;5.90;;;;;;;12.38;81.00;94997.25;5055194;28;20227;-76
2023/05/05 05:31:46;;;;;;;8.85;5.90;;;;;;;12.53;79.16;94993.16;5059562;28;20291;-75
2023/05/05 05:34:13;;;;;;;7.53;4.57;;;;;;;12.68;78.19;94989.88;5056543;28;20825;-75
2023/05/05 05:36:40;;;;;;;11.07;6.75;;;;;;;13.05;77.61;94988.91;5060675;28;20609;-75
2023/05/05 05:39:07;;;;;;;8.77;6.70;;;;;;;13.30;74.92;94983.56;5063438;28;20609;-75
2023/05/05 05:41:33;;;;;;;9.15;6.25;;;;;;;13.30;73.63;94989.00;5059855;28;20211;-74
2023/05/05 05:44:00;;;;;;;7.00;4.35;;;;;;;13.76;72.05;94985.16;5053802;28;20215;-75
2023/05/05 05:46:28;;;;;;;3.72;2.42;;;;;;;13.71;72.14;94982.63;5059829;28;20260;-75
2023/05/05 05:48:55;;;;;;;2.53;1.90;;;;;;;14.01;70.65;94975.06;5056815;28;20207;-75
2023/05/05 05:51:22;;;;;;;3.38;2.67;;;;;;;14.09;70.34;94977.66;5058687;28;20678;-75
2023/05/05 05:53:49;;;;;;;2.80;2.40;;;;;;;14.16;69.68;94979.81;5063039;28;20212;-74
2023/05/05 05:56:15;;;;;;;5.80;2.20;;;;;;;14.15;69.68;94976.31;5060901;28;20756;-75
2023/05/05 05:58:44;;;;;;;3.08;2.00;;;;;;;14.38;69.04;94989.44;5051943;28;20200;-75
2023/05/05 06:01:10;;;;;;;2.80;1.98;;;;;;;14.61;68.88;94981.63;5060771;28;20226;-75
2023/05/05 06:03:44;;;;;;;6.22;2.28;;;;;;;14.60;68.51;94986.28;5038916;28;20231;-75
2023/05/05 06:06:11;;;;;;;3.10;2.38;;;;;;;14.00;68.38;94996.06;5037450;28;20204;-74
2023/05/05 06:08:38;;;;;;;3.85;2.33;;;;;;;14.66;67.74;94982.16;5043051;28;20200;-75
2023/05/05 06:11:05;;;;;;;2.92;2.28;;;;;;;15.04;66.85;94983.63;5029877;28;20212;-75
2023/05/05 06:13:31;;;;;;;3.17;2.67;;;;;;;15.41;65.60;94981.56;5043104;28;20204;-75
2023/05/05 06:15:58;;;;;;;4.80;2.25;;;;;;;14.86;65.10;94980.41;5042067;28;20249;-75
2023/05/05 06:18:25;;;;;;;3.65;2.70;;;;;;;15.15;66.17;94982.81;5036302;28;20277;-75
2023/05/05 06:20:53;;;;;;;4.32;3.05;;;;;;;15.34;64.61;94993.06;5037033;28;20742;-75
2023/05/05 06:23:20;;;;;;;5.75;3.10;;;;;;;14.85;65.31;94987.81;5043688;28;20208;-74
2023/05/05 06:25:47;;;;;;;3.88;2.72;;;;;;;14.81;66.23;94991.56;5042353;28;20234;-75
2023/05/05 06:28:14;;;;;;;3.28;2.67;;;;;;;14.23;68.21;94999.91;5035745;28;20328;-74
2023/05/05 06:30:41;;;;;;;3.88;2.40;;;;;;;14.14;68.01;94996.50;5037025;28;20215;-74
2023/05/05 06:33:07;;;;;;;8.63;3.15;;;;;;;13.79;69.11;95000.81;5043060;28;20207;-75
2023/05/05 06:35:34;;;;;;;3.95;2.58;;;;;;;13.52;69.89;95003.03;5029547;28;20208;-75
2023/05/05 06:38:03;;;;;;;2.20;2.00;;;;;;;13.50;70.85;94997.13;5029039;28;20274;-74
2023/05/05 06:40:30;;;;;;;3.35;1.70;;;;;;;13.55;70.58;95000.75;5042189;28;20766;-75
2023/05/05 06:42:57;;;;;;;2.70;1.05;;;;;;;12.90;72.39;95003.09;5023095;28;20227;-75
2023/05/05 06:45:24;;;;;;;2.67;1.95;;;;;;;13.41;72.13;95006.50;5035713;28;20614;-75
2023/05/05 06:47:51;;;;;;;3.22;2.22;;;;;;;13.19;71.57;94993.28;5015907;28;20208;-75
2023/05/05 06:50:18;;;;;;;2.40;1.98;;;;;;;13.73;71.42;94999.44;5040083;28;20693;-75
2023/05/05 06:52:45;;;;;;;5.32;2.10;;;;;;;13.60;70.65;95003.25;5037849;28;20253;-75
2023/05/05 06:55:13;;;;;;;1.60;1.40;;;;;;;14.03;68.78;94994.59;5033057;28;20204;-75
2023/05/05 06:57:40;;;;;;;3.60;1.98;;;;;;;14.10;69.84;94990.16;5036233;28;20727;-74
2023/05/05 07:00:10;;;;;;;4.22;1.50;;;;;;;14.14;68.28;94998.44;5031348;28;20235;-75
2023/05/05 07:02:37;;;;;;;2.58;1.83;;;;;;;14.01;68.75;94996.84;5043553;28;20237;-74
2023/05/05 07:05:04;;;;;;;4.43;1.77;;;;;;;14.55;67.47;94991.97;5061383;28;20223;-74
2023/05/05 07:07:31;;;;;;;2.83;1.63;;;;;;;15.07;65.81;94988.41;5058137;28;20203;-75
2023/05/05 07:09:58;;;;;;;2.58;2.03;;;;;;;15.01;65.41;94984.34;5054795;28;20677;-75
2023/05/05 07:12:27;;;;;;;2.67;1.95;;;;;;;14.75;65.75;94977.38;5057913;28;20686;-75
2023/05/05 07:14:55;;;;;;;2.67;1.92;;;;;;;15.13;66.45;94981.56;5060954;28;20207;-74
2023/05/05 07:17:22;;;;;;;4.70;2.05;;;;;;;15.83;63.41;94979.97;5059307;28;20206;-75
2023/05/05 07:19:50;;;;;;;3.95;2.20;;;;;;;16.45;61.49;94985.72;5054435;28;20286;-74
2023/05/05 07:22:16;;;;;;;6.10;2.03;;;;;;;17.07;60.02;94973.84;5057215;28;20204;-75
2023/05/05 07:24:43;;;;;;;3.28;2.30;;;;;;;17.56;58.06;94971.25;5056718;28;20266;-75
2023/05/05 07:27:10;;;;;;;4.90;2.63;;;;;;;17.69;57.52;94956.25;5039236;28;20207;-74
2023/05/05 07:29:38;;;;;;;3.58;2.53;;;;;;;17.38;56.86;94962.72;5061188;28;20211;-74
2023/05/05 07:32:05;;;;;;;2.70;1.92;;;;;;;17.21;57.83;94962.38;5048260;28;20211;-74
2023/05/05 07:34:33;;;;;;;2.83;2.45;;;;;;;17.10;58.17;94964.09;5061622;28;20249;-75
2023/05/05 07:37:00;;;;;;;3.22;2.08;;;;;;;17.96;57.11;94967.28;5059965;28;20293;-75
2023/05/05 07:39:26;;;;;;;4.43;2.50;;;;;;;17.77;56.96;94957.97;5054451;28;20194;-75
2023/05/05 07:41:53;;;;;;;5.20;3.10;;;;;;;17.74;57.58;94968.88;5055836;28;20855;-75
2023/05/05 07:44:20;;;;;;;2.70;2.30;;;;;;;17.51;58.93;94965.28;5060655;28;20265;-75
2023/05/05 07:46:48;;;;;;;3.67;2.80;;;;;;;17.50;58.56;94963.69;5047818;28;20570;-75
2023/05/05 07:49:15;;;;;;;2.85;2.17;;;;;;;17.41;58.07;94964.72;5054038;28;20198;-74
2023/05/05 07:51:43;;;;;;;3.92;3.35;;;;;;;17.99;56.22;94964.63;5054474;28;20681;-76
2023/05/05 07:54:12;;;;;;;2.60;2.30;;;;;;;19.49;52.53;94959.28;5060476;28;20218;-76
2023/05/05 07:56:38;;;;;;;2.92;2.22;;;;;;;19.27;52.34;94965.69;5061030;28;20280;-74
2023/05/05 07:59:05;;;;;;;4.20;2.70;;;;;;;19.91;50.56;94969.13;5055193;28;20255;-76
2023/05/05 08:01:32;;;;;;;3.40;2.50;;;;;;;20.28;49.38;94966.31;5053581;28;20293;-75
2023/05/05 08:04:00;;;;;;;2.90;2.35;;;;;;;19.89;50.17;94966.75;5059143;28;20305;-74
2023/05/05 08:06:27;;;;;;;4.65;2.53;;;;;;;19.33;50.25;94964.97;5060899;28;20203;-74
2023/05/05 08:08:54;;;;;;;2.75;2.25;;;;;;;19.55;50.35;94965.22;5055569;28;20195;-75
2023/05/05 08:11:21;;;;;;;2.63;2.08;;;;;;;19.84;49.96;94964.34;5054217;28;20231;-74
2023/05/05 08:13:48;;;;;;;3.78;2.42;;;;;;;19.58;51.18;94964.47;5058653;28;20655;-75
2023/05/05 08:16:15;;;;;;;3.63;2.40;;;;;;;19.64;50.69;94963.78;5060319;28;20267;-75
2023/05/05 08:18:42;;;;;;;2.83;2.53;;;;;;;18.92;51.32;94961.31;5047644;28;20244;-75
2023/05/05 08:21:11;;;;;;;3.75;2.50;;;;;;;19.44;50.69;94959.59;5057933;28;20273;-74
2023/05/05 08:23:39;;;;;;;3.38;2.78;;;;;;;20.36;49.83;94954.22;5057567;28;20203;-73
2023/05/05 08:26:08;;;;;;;5.45;2.00;;;;;;;19.20;49.71;94954.59;5048949;28;20200;-75
2023/05/05 08:28:35;;;;;;;5.18;2.35;;;;;;;19.09;51.34;94940.75;5057347;28;21008;-75
2023/05/05 08:31:02;;;;;;;2.90;2.03;;;;;;;19.44;50.23;94937.59;5050323;28;20203;-75
2023/05/05 08:33:29;;;;;;;6.78;2.05;;;;;;;18.10;52.06;94948.34;5051525;28;20256;-74
2023/05/05 08:35:56;;;;;;;4.25;2.35;;;;;;;17.86;53.07;94943.25;5048790;28;20277;-74
2023/05/05 08:38:24;;;;;;;2.83;2.00;;;;;;;18.01;53.10;94947.81;5047764;28;20196;-75
2023/05/05 08:40:54;;;;;;;4.22;2.20;;;;;;;18.00;52.80;94938.00;5060901;28;20231;-74
2023/05/05 08:43:22;;;;;;;3.35;2.38;;;;;;;17.57;53.40;94948.19;5047538;28;20211;-75
2023/05/05 08:45:51;;;;;;;3.13;2.13;;;;;;;17.62;53.51;94939.69;5052472;28;20733;-76
2023/05/05 08:48:19;;;;;;;2.45;2.10;;;;;;;18.47;52.87;94937.53;5055752;28;20295;-75
2023/05/05 08:50:49;;;;;;;2.92;2.35;;;;;;;18.90;51.75;94930.69;5047193;28;20747;-76
2023/05/05 08:53:17;;;;;;;3.22;2.10;;;;;;;18.71;52.39;94930.84;5060093;28;20242;-75
2023/05/05 08:55:50;;;;;;;3.05;1.50;;;;;;;18.46;50.57;94934.00;5040435;28;20271;-76
2023/05/05 08:58:18;;;;;;;5.38;1.80;;;;;;;18.71;51.55;94933.59;5053370;28;20203;-76
2023/05/05 09:00:45;;;;;;;2.30;1.80;;;;;;;18.18;51.39;94939.06;5066730;28;20788;-75
2023/05/05 09:03:13;;;;;;;1.88;1.67;;;;;;;18.08;51.72;94943.22;5051878;28;20235;-75
2023/05/05 09:05:42;;;;;;;1.60;1.50;;;;;;;18.10;51.38;94931.88;5055469;28;20199;-74
2023/05/05 09:08:10;;;;;;;3.47;2.10;;;;;;;18.74;52.38;94930.09;5064587;28;20207;-75
2023/05/05 09:10:40;;;;;;;3.40;1.90;;;;;;;17.53;53.93;94941.84;5056463;28;20281;-77
2023/05/05 09:13:08;;;;;;;4.78;2.10;;;;;;;17.13;55.31;94928.59;5053619;28;20665;-75
2023/05/05 09:15:37;;;;;;;1.88;1.58;;;;;;;17.65;52.03;94938.16;5057286;28;20212;-75
2023/05/05 09:18:07;;;;;;;2.00;1.70;;;;;;;18.27;49.85;94920.41;5060547;28;20204;-75
2023/05/05 09:20:36;;;;;;;7.88;2.35;;;;;;;18.65;49.71;94924.09;5058458;28;20218;-75
2023/05/05 09:23:10;;;;;;;8.38;2.20;;;;;;;18.45;53.34;94931.63;5048022;28;20234;-75
2023/05/05 09:25:37;;;;;;;2.58;1.95;;;;;;;17.31;56.48;94935.19;5059812;28;20210;-75
2023/05/05 09:28:16;;;;;;;2.55;2.15;;;;;;;16.33;60.63;94946.41;5053024;28;20203;-74
2023/05/05 09:30:44;;;;;;;5.40;2.45;;;;;;;16.42;59.10;94931.75;5053157;28;20222;-75
2023/05/05 09:33:12;;;;;;;2.88;1.90;;;;;;;16.39;59.04;94935.22;5058911;28;20203;-76
2023/05/05 09:35:50;;;;;;;3.30;2.05;;;;;;;16.94;58.91;94926.66;5048503;28;20207;-75
2023/05/05 09:38:20;;;;;;;3.20;2.00;;;;;;;17.10;56.72;94920.28;5060221;28;20195;-75
2023/05/05 09:40:51;;;;;;;2.35;1.63;;;;;;;17.04;57.31;94931.56;5063691;28;20223;-74
2023/05/05 09:43:20;;;;;;;2.55;1.95;;;;;;;17.14;56.23;94929.38;5062207;28;20214;-76
2023/05/05 09:45:48;;;;;;;3.92;2.22;;;;;;;17.25;55.76;94927.63;5052165;28;20218;-74
2023/05/05 09:48:29;;;;;;;3.22;2.30;;;;;;;17.65;55.34;94922.53;5062134;28;21000;-74
2023/05/05 09:50:59;;;;;;;3.72;2.08;;;;;;;19.18;51.86;94913.78;5038136;28;20281;-74
2023/05/05 09:53:38;;;;;;;3.03;2.05;;;;;;;19.49;51.62;94915.31;5052315;28;20195;-73
2023/05/05 09:56:06;;;;;;;3.40;2.00;;;;;;;18.58;53.37;94908.34;5061767;28;20207;-76
2023/05/05 09:58:34;;;;;;;3.53;2.20;;;;;;;17.46;54.95;94925.31;5062279;28;20195;-75
2023/05/05 10:01:01;;;;;;;2.75;2.30;;;;;;;17.12;57.15;94915.25;5060044;28;20238;-76
2023/05/05 10:03:28;;;;;;;4.78;2.63;;;;;;;17.36;57.35;94909.44;5063695;28;20676;-75
2023/05/05 10:05:59;;;;;;;2.00;1.80;;;;;;;17.23;55.99;94922.50;5050639;28;20215;-75
2023/05/05 10:08:28;;;;;;;2.42;2.20;;;;;;;16.44;59.26;94923.97;5054128;28;20603;-75
2023/05/05 10:10:57;;;;;;;4.03;2.22;;;;;;;16.51;58.42;94918.69;5058699;28;20227;-75
2023/05/05 10:13:24;;;;;;;4.40;2.50;;;;;;;16.58;58.61;94914.16;5054437;28;20691;-75
2023/05/05 10:15:54;;;;;;;3.55;2.50;;;;;;;16.79;58.68;94918.53;5058041;28;20210;-75
2023/05/05 10:18:23;;;;;;;3.05;2.10;;;;;;;17.32;57.22;94909.41;5063028;28;20221;-74
2023/05/05 10:20:58;;;;;;;3.92;2.50;;;;;;;17.20;57.26;94908.78;5062568;28;20214;-75
2023/05/05 10:23:32;;;;;;;2.60;2.33;;;;;;;16.76;58.17;94905.56;5045075;28;20207;-75
2023/05/05 10:26:02;;;;;;;2.85;2.00;;;;;;;16.60;56.98;94905.59;5056008;28;20290;-75
2023/05/05 10:28:33;;;;;;;3.13;2.22;;;;;;;17.07;56.29;94907.34;5060264;28;20320;-75
2023/05/05 10:31:02;;;;;;;3.60;2.35;;;;;;;16.99;56.97;94906.41;5052761;28;20211;-75
2023/05/05 10:33:36;;;;;;;2.97;2.08;;;;;;;17.30;57.28;94886.28;5059366;28;20879;-75
2023/05/05 10:36:06;;;;;;;2.75;2.20;;;;;;;17.92;54.74;94906.13;5063013;28;20612;-77
2023/05/05 10:38:33;;;;;;;3.50;2.38;;;;;;;17.73;56.70;94891.38;5061580;28;20576;-75
2023/05/05 10:41:01;;;;;;;3.95;2.38;;;;;;;17.85;54.67;94892.31;5053641;28;20860;-75
2023/05/05 10:43:28;;;;;;;5.90;2.70;;;;;;;18.52;53.82;94887.03;5038669;28;20616;-74
2023/05/05 10:45:55;;;;;;;3.72;2.30;;;;;;;17.91;55.14;94907.28;5046081;28;20219;-76
2023/05/05 10:48:32;;;;;;;4.80;2.38;;;;;;;17.59;55.04;94901.25;5044976;28;20192;-75
2023/05/05 10:51:12;;;;;;;4.15;2.20;;;;;;;17.38;55.91;94909.88;5037188;28;20242;-76
2023/05/05 10:53:48;;;;;;;2.60;2.03;;;;;;;16.82;57.53;94910.38;5048491;28;20203;-77
2023/05/05 10:56:25;;;;;;;3.15;2.40;;;;;;;16.76;58.31;94900.88;5054987;28;20668;-76
2023/05/05 10:58:52;;;;;;;3.17;2.55;;;;;;;16.91;57.95;94916.44;5047717;28;20203;-75
2023/05/05 11:01:30;;;;;;;3.58;2.22;;;;;;;17.21;56.50;94902.16;5043059;28;20647;-76
2023/05/05 11:04:17;;;;;;;3.22;2.33;;;;;;;17.12;56.97;94898.81;5045707;28;20925;-75
2023/05/05 11:07:26;;;;;;;3.85;2.63;;;;;;;17.63;55.85;94902.13;5053536;28;20265;-75
2023/05/05 11:09:57;;;;;;;2.70;2.03;;;;;;;17.51;55.76;94897.59;5032755;28;20236;-75
2023/05/05 11:12:27;;;;;;;2.53;2.00;;;;;;;17.80;54.21;94889.88;5049556;28;20222;-76
2023/05/05 11:15:32;;;;;;;2.55;2.00;;;;;;;18.05;54.16;94883.63;5036552;28;20199;-75
2023/05/05 11:18:01;;;;;;;4.18;2.20;;;;;;;17.06;56.43;94887.41;5039373;28;20849;-78
2023/05/05 11:21:04;;;;;;;2.88;2.13;;;;;;;17.77;55.66;94886.72;5040989;28;20207;-77
2023/05/05 11:23:31;;;;;;;2.70;1.98;;;;;;;17.33;55.72;94901.97;5047949;28;20282;-75
2023/05/05 11:25:58;;;;;;;2.55;1.90;;;;;;;17.66;55.59;94876.75;5049604;28;20203;-74
2023/05/05 11:28:28;;;;;;;2.92;1.92;;;;;;;17.27;57.17;94879.56;5049709;28;20231;-75
2023/05/05 11:31:25;;;;;;;2.58;1.92;;;;;;;17.61;57.51;94877.81;5046290;28;20652;-75
2023/05/05 11:33:52;;;;;;;2.33;1.80;;;;;;;17.01;57.12;94877.53;4975435;28;20549;-75
2023/05/05 11:36:37;;;;;;;2.53;2.13;;;;;;;16.89;59.29;94879.63;5026920;28;20749;-75
2023/05/05 11:39:09;;;;;;;5.00;2.03;;;;;;;16.90;57.74;94876.53;5044265;28;20630;-76
2023/05/05 11:41:57;;;;;;;2.85;1.90;;;;;;;17.50;57.23;94876.03;5047171;28;20320;-75
2023/05/05 11:44:30;;;;;;;2.22;1.80;;;;;;;17.20;56.77;94873.19;5047018;28;20195;-75